Terminal Aerodrome Forecast
Issued by NWS

Home | Current Version | Previous Version | Text Only | Print | Product List | Glossary On
Versions: 1 2 3 4 5 6 7 8 9 10 11 12 13 14 15 16 17 18 19 20 21 22 23 24 25 26 27 28 29 30 31
015
FTUS42 KJAX 240038 AAB
TAFVQQ
TAF AMD
KVQQ 240038Z 2401/2424 18006KT P6SM SCT150 BKN250
     FM240600 VRB03KT P6SM FEW020 SCT100 SCT250
     FM241300 23007KT P6SM VCSH SCT040 SCT080 BKN250
     FM241500 22009KT P6SM VCTS SCT025 BKN040CB PROB30 2417/2421
      VRB15G25KT -TSRA SCT015 BKN025CB=

USA.gov is the U.S. government's official web portal to all federal, state and local government web resources and services.